sensor_id;sensor_type;location;lat;lon;timestamp;temperature;humidity
20504;DHT22;10410;51.046;6.980;2023-08-06T00:00:18;15.80;99.90
20504;DHT22;10410;51.046;6.980;2023-08-06T00:07:19;15.80;99.90
20504;DHT22;10410;51.046;6.980;2023-08-06T00:14:19;15.80;99.90
20504;DHT22;10410;51.046;6.980;2023-08-06T00:21:20;15.80;99.90
20504;DHT22;10410;51.046;6.980;2023-08-06T00:28:20;15.80;99.90
20504;DHT22;10410;51.046;6.980;2023-08-06T00:35:21;15.70;99.90
20504;DHT22;10410;51.046;6.980;2023-08-06T00:42:21;15.60;99.90
20504;DHT22;10410;51.046;6.980;2023-08-06T00:49:23;15.50;99.90
20504;DHT22;10410;51.046;6.980;2023-08-06T00:56:24;15.40;99.90
20504;DHT22;10410;51.046;6.980;2023-08-06T01:03:25;15.30;99.90
20504;DHT22;10410;51.046;6.980;2023-08-06T01:17:40;15.20;99.90
20504;DHT22;10410;51.046;6.980;2023-08-06T01:24:44;15.20;99.90
20504;DHT22;10410;51.046;6.980;2023-08-06T01:31:48;15.10;99.90
20504;DHT22;10410;51.046;6.980;2023-08-06T01:38:54;15.10;99.90
20504;DHT22;10410;51.046;6.980;2023-08-06T01:45:55;15.10;99.90
20504;DHT22;10410;51.046;6.980;2023-08-06T01:52:55;15.10;99.90
20504;DHT22;10410;51.046;6.980;2023-08-06T01:59:55;15.00;99.90
20504;DHT22;10410;51.046;6.980;2023-08-06T02:06:56;14.90;99.90
20504;DHT22;10410;51.046;6.980;2023-08-06T02:13:57;14.90;99.90
20504;DHT22;10410;51.046;6.980;2023-08-06T02:20:58;14.90;99.90
20504;DHT22;10410;51.046;6.980;2023-08-06T02:27:59;14.90;99.90
20504;DHT22;10410;51.046;6.980;2023-08-06T02:34:59;14.80;99.90
20504;DHT22;10410;51.046;6.980;2023-08-06T02:42:00;14.80;99.90
20504;DHT22;10410;51.046;6.980;2023-08-06T02:49:04;14.80;99.90
20504;DHT22;10410;51.046;6.980;2023-08-06T02:56:05;14.90;99.90
20504;DHT22;10410;51.046;6.980;2023-08-06T03:03:18;14.90;99.90
20504;DHT22;10410;51.046;6.980;2023-08-06T03:10:29;14.90;99.90
20504;DHT22;10410;51.046;6.980;2023-08-06T03:17:34;14.90;99.90
20504;DHT22;10410;51.046;6.980;2023-08-06T03:24:37;15.00;99.90
20504;DHT22;10410;51.046;6.980;2023-08-06T03:31:38;15.00;99.90
20504;DHT22;10410;51.046;6.980;2023-08-06T03:38:39;15.10;99.90
20504;DHT22;10410;51.046;6.980;2023-08-06T03:45:41;15.10;99.90
20504;DHT22;10410;51.046;6.980;2023-08-06T03:52:43;15.10;99.90
20504;DHT22;10410;51.046;6.980;2023-08-06T03:59:44;15.10;99.90
20504;DHT22;10410;51.046;6.980;2023-08-06T04:06:56;15.10;99.90
20504;DHT22;10410;51.046;6.980;2023-08-06T04:13:56;15.10;99.90
20504;DHT22;10410;51.046;6.980;2023-08-06T04:20:57;15.00;99.90
20504;DHT22;10410;51.046;6.980;2023-08-06T04:27:58;15.00;99.90
20504;DHT22;10410;51.046;6.980;2023-08-06T04:34:59;15.00;99.90
20504;DHT22;10410;51.046;6.980;2023-08-06T04:42:00;15.00;99.90
20504;DHT22;10410;51.046;6.980;2023-08-06T04:49:01;14.90;99.90
20504;DHT22;10410;51.046;6.980;2023-08-06T04:56:02;14.90;99.90
20504;DHT22;10410;51.046;6.980;2023-08-06T05:03:02;14.90;99.90
20504;DHT22;10410;51.046;6.980;2023-08-06T05:10:03;14.90;99.90
20504;DHT22;10410;51.046;6.980;2023-08-06T05:17:05;14.90;99.90
20504;DHT22;10410;51.046;6.980;2023-08-06T05:24:05;14.90;99.90
20504;DHT22;10410;51.046;6.980;2023-08-06T05:31:06;14.90;99.90
20504;DHT22;10410;51.046;6.980;2023-08-06T05:38:06;15.00;99.90
20504;DHT22;10410;51.046;6.980;2023-08-06T05:45:07;15.10;99.90
20504;DHT22;10410;51.046;6.980;2023-08-06T05:52:08;15.20;99.90
20504;DHT22;10410;51.046;6.980;2023-08-06T05:59:09;15.20;99.90
20504;DHT22;10410;51.046;6.980;2023-08-06T06:06:10;15.40;99.90
20504;DHT22;10410;51.046;6.980;2023-08-06T06:13:10;15.40;99.90
20504;DHT22;10410;51.046;6.980;2023-08-06T06:20:11;15.50;99.90
20504;DHT22;10410;51.046;6.980;2023-08-06T06:27:12;15.50;99.90
20504;DHT22;10410;51.046;6.980;2023-08-06T06:34:12;15.60;99.90
20504;DHT22;10410;51.046;6.980;2023-08-06T06:41:13;15.60;99.90
20504;DHT22;10410;51.046;6.980;2023-08-06T06:48:13;15.70;99.90
20504;DHT22;10410;51.046;6.980;2023-08-06T06:55:13;15.80;99.90
20504;DHT22;10410;51.046;6.980;2023-08-06T07:02:14;15.80;99.90
20504;DHT22;10410;51.046;6.980;2023-08-06T07:09:15;15.90;99.90
20504;DHT22;10410;51.046;6.980;2023-08-06T07:16:15;16.00;99.90
20504;DHT22;10410;51.046;6.980;2023-08-06T07:23:16;16.00;99.90
20504;DHT22;10410;51.046;6.980;2023-08-06T07:30:16;16.10;99.90
20504;DHT22;10410;51.046;6.980;2023-08-06T07:37:17;16.10;99.90
20504;DHT22;10410;51.046;6.980;2023-08-06T07:44:17;16.00;99.90
20504;DHT22;10410;51.046;6.980;2023-08-06T07:51:18;16.10;99.90
20504;DHT22;10410;51.046;6.980;2023-08-06T07:58:20;16.20;99.90
20504;DHT22;10410;51.046;6.980;2023-08-06T08:05:20;16.40;99.90
20504;DHT22;10410;51.046;6.980;2023-08-06T08:12:21;16.60;99.90
20504;DHT22;10410;51.046;6.980;2023-08-06T08:19:21;16.70;99.90
20504;DHT22;10410;51.046;6.980;2023-08-06T08:26:22;16.80;99.90
20504;DHT22;10410;51.046;6.980;2023-08-06T08:33:23;16.70;99.90
20504;DHT22;10410;51.046;6.980;2023-08-06T08:40:29;16.60;99.90
20504;DHT22;10410;51.046;6.980;2023-08-06T08:47:33;16.60;99.90
20504;DHT22;10410;51.046;6.980;2023-08-06T08:54:34;16.70;99.90
20504;DHT22;10410;51.046;6.980;2023-08-06T09:01:35;16.90;99.90
20504;DHT22;10410;51.046;6.980;2023-08-06T09:08:43;16.90;99.90
20504;DHT22;10410;51.046;6.980;2023-08-06T09:15:47;16.90;99.90
20504;DHT22;10410;51.046;6.980;2023-08-06T09:22:53;16.90;99.90
20504;DHT22;10410;51.046;6.980;2023-08-06T09:29:53;17.00;99.90
20504;DHT22;10410;51.046;6.980;2023-08-06T09:36:54;17.00;99.90
20504;DHT22;10410;51.046;6.980;2023-08-06T09:43:55;16.90;99.90
20504;DHT22;10410;51.046;6.980;2023-08-06T09:50:55;17.10;99.90
20504;DHT22;10410;51.046;6.980;2023-08-06T09:57:58;17.30;99.90
20504;DHT22;10410;51.046;6.980;2023-08-06T10:04:59;17.60;99.90
20504;DHT22;10410;51.046;6.980;2023-08-06T10:12:00;18.00;99.90
20504;DHT22;10410;51.046;6.980;2023-08-06T10:19:03;17.70;99.90
20504;DHT22;10410;51.046;6.980;2023-08-06T10:26:04;17.00;99.90
20504;DHT22;10410;51.046;6.980;2023-08-06T10:33:05;16.30;99.90
20504;DHT22;10410;51.046;6.980;2023-08-06T10:40:06;15.60;99.90
20504;DHT22;10410;51.046;6.980;2023-08-06T10:47:28;15.30;99.90
20504;DHT22;10410;51.046;6.980;2023-08-06T10:54:29;15.10;99.90
20504;DHT22;10410;51.046;6.980;2023-08-06T11:01:33;15.00;99.90
20504;DHT22;10410;51.046;6.980;2023-08-06T11:08:36;14.80;99.90
20504;DHT22;10410;51.046;6.980;2023-08-06T11:15:37;14.60;99.90
20504;DHT22;10410;51.046;6.980;2023-08-06T11:22:38;14.50;99.90
20504;DHT22;10410;51.046;6.980;2023-08-06T11:29:38;14.30;99.90
20504;DHT22;10410;51.046;6.980;2023-08-06T11:36:42;14.10;99.90
20504;DHT22;10410;51.046;6.980;2023-08-06T11:43:45;14.00;99.90
20504;DHT22;10410;51.046;6.980;2023-08-06T11:50:46;14.00;99.90
20504;DHT22;10410;51.046;6.980;2023-08-06T11:57:47;13.90;99.90
20504;DHT22;10410;51.046;6.980;2023-08-06T12:05:10;14.00;99.90
20504;DHT22;10410;51.046;6.980;2023-08-06T12:12:10;14.10;99.90
20504;DHT22;10410;51.046;6.980;2023-08-06T12:19:10;14.20;99.90
20504;DHT22;10410;51.046;6.980;2023-08-06T12:26:11;14.30;99.90
20504;DHT22;10410;51.046;6.980;2023-08-06T12:33:11;14.50;99.90
20504;DHT22;10410;51.046;6.980;2023-08-06T12:40:12;14.60;99.90
20504;DHT22;10410;51.046;6.980;2023-08-06T12:47:16;14.70;99.90
20504;DHT22;10410;51.046;6.980;2023-08-06T12:54:17;14.80;99.90
20504;DHT22;10410;51.046;6.980;2023-08-06T13:01:18;15.00;99.90
20504;DHT22;10410;51.046;6.980;2023-08-06T13:08:19;15.00;99.90
20504;DHT22;10410;51.046;6.980;2023-08-06T13:15:20;15.10;99.90
20504;DHT22;10410;51.046;6.980;2023-08-06T13:22:22;15.10;99.90
20504;DHT22;10410;51.046;6.980;2023-08-06T13:29:22;15.20;99.90
20504;DHT22;10410;51.046;6.980;2023-08-06T13:36:23;15.30;99.90
20504;DHT22;10410;51.046;6.980;2023-08-06T13:43:24;15.30;99.90
20504;DHT22;10410;51.046;6.980;2023-08-06T13:50:24;15.30;99.90
20504;DHT22;10410;51.046;6.980;2023-08-06T13:57:26;15.30;99.90
20504;DHT22;10410;51.046;6.980;2023-08-06T14:04:27;15.30;99.90
20504;DHT22;10410;51.046;6.980;2023-08-06T14:11:27;15.40;99.90
20504;DHT22;10410;51.046;6.980;2023-08-06T14:18:28;15.40;99.90
20504;DHT22;10410;51.046;6.980;2023-08-06T14:25:28;15.50;99.90
20504;DHT22;10410;51.046;6.980;2023-08-06T14:32:29;15.50;99.90
20504;DHT22;10410;51.046;6.980;2023-08-06T14:39:30;15.50;99.90
20504;DHT22;10410;51.046;6.980;2023-08-06T14:46:30;15.50;99.90
20504;DHT22;10410;51.046;6.980;2023-08-06T14:53:31;15.20;99.90
20504;DHT22;10410;51.046;6.980;2023-08-06T15:00:32;14.90;99.90
20504;DHT22;10410;51.046;6.980;2023-08-06T15:07:32;14.50;99.90
20504;DHT22;10410;51.046;6.980;2023-08-06T15:14:35;14.40;99.90
20504;DHT22;10410;51.046;6.980;2023-08-06T15:21:35;14.30;99.90
20504;DHT22;10410;51.046;6.980;2023-08-06T15:28:36;14.40;99.90
20504;DHT22;10410;51.046;6.980;2023-08-06T15:35:37;14.30;99.90
20504;DHT22;10410;51.046;6.980;2023-08-06T15:42:37;14.30;99.90
20504;DHT22;10410;51.046;6.980;2023-08-06T15:49:38;14.40;99.90
20504;DHT22;10410;51.046;6.980;2023-08-06T15:56:39;14.40;99.90
20504;DHT22;10410;51.046;6.980;2023-08-06T16:03:40;14.60;99.90
20504;DHT22;10410;51.046;6.980;2023-08-06T16:10:43;14.70;99.90
20504;DHT22;10410;51.046;6.980;2023-08-06T16:17:46;14.90;99.90
20504;DHT22;10410;51.046;6.980;2023-08-06T16:24:46;15.00;99.90
20504;DHT22;10410;51.046;6.980;2023-08-06T16:31:49;15.00;99.90
20504;DHT22;10410;51.046;6.980;2023-08-06T16:38:49;14.80;99.90
20504;DHT22;10410;51.046;6.980;2023-08-06T16:45:52;14.70;99.90
20504;DHT22;10410;51.046;6.980;2023-08-06T16:52:55;14.70;99.90
20504;DHT22;10410;51.046;6.980;2023-08-06T16:59:56;14.70;99.90
20504;DHT22;10410;51.046;6.980;2023-08-06T17:06:57;14.70;99.90
20504;DHT22;10410;51.046;6.980;2023-08-06T17:13:57;14.60;99.90
20504;DHT22;10410;51.046;6.980;2023-08-06T17:20:59;14.50;99.90
20504;DHT22;10410;51.046;6.980;2023-08-06T17:28:01;14.50;99.90
20504;DHT22;10410;51.046;6.980;2023-08-06T17:35:01;14.40;99.90
20504;DHT22;10410;51.046;6.980;2023-08-06T17:42:02;14.30;99.90
20504;DHT22;10410;51.046;6.980;2023-08-06T17:49:10;14.40;99.90
20504;DHT22;10410;51.046;6.980;2023-08-06T17:56:11;14.60;99.90
20504;DHT22;10410;51.046;6.980;2023-08-06T18:03:11;14.50;99.90
20504;DHT22;10410;51.046;6.980;2023-08-06T18:10:12;14.40;99.90
20504;DHT22;10410;51.046;6.980;2023-08-06T18:17:13;14.30;99.90
20504;DHT22;10410;51.046;6.980;2023-08-06T18:24:14;14.30;99.90
20504;DHT22;10410;51.046;6.980;2023-08-06T18:31:15;14.30;99.90
20504;DHT22;10410;51.046;6.980;2023-08-06T18:38:17;14.20;99.90
20504;DHT22;10410;51.046;6.980;2023-08-06T18:45:17;14.10;99.90
20504;DHT22;10410;51.046;6.980;2023-08-06T18:52:18;14.00;99.90
20504;DHT22;10410;51.046;6.980;2023-08-06T18:59:19;14.00;99.90
20504;DHT22;10410;51.046;6.980;2023-08-06T19:06:22;13.90;99.90
20504;DHT22;10410;51.046;6.980;2023-08-06T19:13:24;13.90;99.90
20504;DHT22;10410;51.046;6.980;2023-08-06T19:20:24;13.80;99.90
20504;DHT22;10410;51.046;6.980;2023-08-06T19:27:25;13.70;99.90
20504;DHT22;10410;51.046;6.980;2023-08-06T19:34:26;13.70;99.90
20504;DHT22;10410;51.046;6.980;2023-08-06T19:41:26;13.70;99.90
20504;DHT22;10410;51.046;6.980;2023-08-06T19:48:27;13.60;99.90
20504;DHT22;10410;51.046;6.980;2023-08-06T19:55:27;13.60;99.90
20504;DHT22;10410;51.046;6.980;2023-08-06T20:02:28;13.60;99.90
20504;DHT22;10410;51.046;6.980;2023-08-06T20:09:28;13.50;99.90
20504;DHT22;10410;51.046;6.980;2023-08-06T20:16:29;13.50;99.90
20504;DHT22;10410;51.046;6.980;2023-08-06T20:23:29;13.40;99.90
20504;DHT22;10410;51.046;6.980;2023-08-06T20:30:30;13.40;99.90
20504;DHT22;10410;51.046;6.980;2023-08-06T20:37:30;13.40;99.90
20504;DHT22;10410;51.046;6.980;2023-08-06T20:44:31;13.40;99.90
20504;DHT22;10410;51.046;6.980;2023-08-06T20:51:35;13.40;99.90
20504;DHT22;10410;51.046;6.980;2023-08-06T20:58:35;13.40;99.90
20504;DHT22;10410;51.046;6.980;2023-08-06T21:05:36;13.40;99.90
20504;DHT22;10410;51.046;6.980;2023-08-06T21:12:37;13.30;99.90
20504;DHT22;10410;51.046;6.980;2023-08-06T21:19:37;13.30;99.90
20504;DHT22;10410;51.046;6.980;2023-08-06T21:26:38;13.30;99.90
20504;DHT22;10410;51.046;6.980;2023-08-06T21:33:40;13.20;99.90
20504;DHT22;10410;51.046;6.980;2023-08-06T21:40:41;13.10;99.90
20504;DHT22;10410;51.046;6.980;2023-08-06T21:47:44;13.10;99.90
20504;DHT22;10410;51.046;6.980;2023-08-06T21:54:44;13.00;99.90
20504;DHT22;10410;51.046;6.980;2023-08-06T22:01:45;13.00;99.90
20504;DHT22;10410;51.046;6.980;2023-08-06T22:08:46;13.00;99.90
20504;DHT22;10410;51.046;6.980;2023-08-06T22:15:46;13.00;99.90
20504;DHT22;10410;51.046;6.980;2023-08-06T22:22:47;13.10;99.90
20504;DHT22;10410;51.046;6.980;2023-08-06T22:29:47;13.10;99.90
20504;DHT22;10410;51.046;6.980;2023-08-06T22:36:47;13.10;99.90
20504;DHT22;10410;51.046;6.980;2023-08-06T22:43:48;13.10;99.90
20504;DHT22;10410;51.046;6.980;2023-08-06T22:50:49;13.10;99.90
20504;DHT22;10410;51.046;6.980;2023-08-06T22:57:49;13.10;99.90
20504;DHT22;10410;51.046;6.980;2023-08-06T23:04:50;13.10;99.90
20504;DHT22;10410;51.046;6.980;2023-08-06T23:11:51;13.10;99.90
20504;DHT22;10410;51.046;6.980;2023-08-06T23:18:52;13.10;99.90
20504;DHT22;10410;51.046;6.980;2023-08-06T23:25:52;13.10;99.90
20504;DHT22;10410;51.046;6.980;2023-08-06T23:32:53;13.20;99.90
20504;DHT22;10410;51.046;6.980;2023-08-06T23:39:53;13.20;99.90
20504;DHT22;10410;51.046;6.980;2023-08-06T23:46:55;13.20;99.90
20504;DHT22;10410;51.046;6.980;2023-08-06T23:53:55;13.10;99.90
